Time;durP1;ratioP1;P1;durP2;ratioP2;P2;SDS_P1;SDS_P2;PMS_P1;PMS_P2;Temp;Humidity;BMP_temperature;BMP_pressure;BME280_temperature;BME280_humidity;BME280_pressure;Samples;Min_cycle;Max_cycle;Signal;HPM_P1;HPM_P2
2023/12/29 00:01:47;;;;;;;13.63;8.63;;;21.10;58.90;;;;;;5132285;27;20169;-69
2023/12/29 00:04:12;;;;;;;12.20;7.50;;;21.10;58.90;;;;;;5132172;27;20168;-69
2023/12/29 00:06:39;;;;;;;11.27;7.57;;;21.10;58.90;;;;;;5132154;27;20176;-68
2023/12/29 00:09:04;;;;;;;13.83;7.70;;;21.10;59.00;;;;;;5132111;27;20168;-68
2023/12/29 00:11:30;;;;;;;12.60;8.60;;;21.10;59.00;;;;;;5132125;27;20779;-68
2023/12/29 00:13:56;;;;;;;9.73;7.07;;;21.10;59.00;;;;;;5131975;27;20195;-68
2023/12/29 00:16:21;;;;;;;10.93;7.07;;;21.10;58.90;;;;;;5131086;27;20180;-69
2023/12/29 00:18:47;;;;;;;9.73;7.57;;;21.10;58.90;;;;;;5132047;27;20502;-68
2023/12/29 00:21:12;;;;;;;9.70;6.43;;;21.00;58.90;;;;;;5131876;27;20514;-70
2023/12/29 00:23:38;;;;;;;14.13;7.37;;;21.10;58.90;;;;;;5131978;27;20255;-69
2023/12/29 00:26:04;;;;;;;9.97;7.80;;;21.10;58.90;;;;;;5113300;27;20168;-69
2023/12/29 00:28:29;;;;;;;9.63;7.13;;;21.10;58.90;;;;;;5131761;27;20193;-69
2023/12/29 00:30:55;;;;;;;8.73;7.47;;;21.00;58.90;;;;;;5131771;27;20195;-69
2023/12/29 00:33:20;;;;;;;10.60;6.90;;;21.00;58.90;;;;;;5131653;27;20199;-68
2023/12/29 00:35:46;;;;;;;9.00;6.30;;;21.10;58.90;;;;;;5131790;27;20183;-69
2023/12/29 00:38:12;;;;;;;10.43;7.00;;;21.00;58.90;;;;;;5131669;27;20291;-69
2023/12/29 00:40:37;;;;;;;9.07;6.20;;;21.10;58.90;;;;;;5131570;27;20191;-69
2023/12/29 00:43:03;;;;;;;8.63;6.33;;;21.00;58.80;;;;;;5131838;27;20187;-68
2023/12/29 00:45:36;;;;;;;9.27;7.57;;;21.00;58.80;;;;;;5131502;27;20168;-69
2023/12/29 00:48:02;;;;;;;11.73;6.60;;;21.00;58.80;;;;;;5131550;27;20279;-70
2023/12/29 00:50:28;;;;;;;9.50;6.23;;;21.00;58.80;;;;;;5131439;27;20410;-68
2023/12/29 00:52:54;;;;;;;8.40;6.03;;;21.00;58.80;;;;;;5131300;27;20410;-69
2023/12/29 00:55:19;;;;;;;10.27;6.47;;;21.00;58.80;;;;;;5131371;27;20410;-68
2023/12/29 00:57:45;;;;;;;6.90;5.60;;;21.00;58.80;;;;;;5131548;27;20655;-69
2023/12/29 01:00:12;;;;;;;7.03;5.43;;;21.00;58.80;;;;;;5131297;27;20168;-68
2023/12/29 01:02:38;;;;;;;8.83;6.00;;;21.00;58.80;;;;;;5131334;27;20160;-69
2023/12/29 01:05:04;;;;;;;6.00;5.40;;;21.00;58.80;;;;;;5131224;27;20402;-68
2023/12/29 01:07:30;;;;;;;8.27;5.77;;;21.00;58.80;;;;;;5131414;27;20565;-68
2023/12/29 01:09:55;;;;;;;8.30;5.40;;;21.00;58.80;;;;;;5131036;27;20839;-68
2023/12/29 01:12:21;;;;;;;7.43;4.97;;;21.00;58.80;;;;;;5131269;27;20176;-69
2023/12/29 01:14:46;;;;;;;7.37;5.43;;;21.00;58.80;;;;;;5130946;27;20203;-68
2023/12/29 01:17:12;;;;;;;9.03;5.80;;;21.00;59.40;;;;;;5130880;27;20207;-68
2023/12/29 01:19:38;;;;;;;8.27;5.30;;;21.00;58.80;;;;;;5131069;27;20705;-69
2023/12/29 01:22:03;;;;;;;8.90;5.87;;;21.00;59.00;;;;;;5131061;28;20217;-68
2023/12/29 01:24:29;;;;;;;7.47;6.03;;;21.00;58.80;;;;;;5112532;28;20187;-68
2023/12/29 01:26:55;;;;;;;6.40;5.10;;;21.00;58.80;;;;;;5112393;27;20207;-67
2023/12/29 01:29:21;;;;;;;8.70;5.37;;;21.00;58.80;;;;;;5135221;27;20176;-69
2023/12/29 01:31:47;;;;;;;7.13;5.40;;;21.00;58.80;;;;;;5115245;27;20448;-69
2023/12/29 01:34:13;;;;;;;7.30;6.30;;;21.00;58.80;;;;;;5134726;27;20283;-68
2023/12/29 01:36:39;;;;;;;7.67;5.57;;;20.90;58.70;;;;;;5134491;27;20882;-68
2023/12/29 01:39:04;;;;;;;8.87;5.77;;;20.90;58.70;;;;;;5134544;27;20200;-68
2023/12/29 01:41:30;;;;;;;6.70;5.30;;;20.90;58.70;;;;;;5134527;27;20179;-68
2023/12/29 01:44:01;;;;;;;6.77;5.13;;;20.90;58.70;;;;;;5134441;27;20544;-68
2023/12/29 01:46:29;;;;;;;10.07;6.10;;;21.00;58.70;;;;;;5134401;27;20678;-68
2023/12/29 01:48:55;;;;;;;7.50;5.50;;;20.90;58.70;;;;;;5134504;27;20450;-68
2023/12/29 01:51:23;;;;;;;8.40;5.47;;;21.00;58.70;;;;;;5133747;27;20428;-68
2023/12/29 01:53:50;;;;;;;6.93;5.47;;;20.90;58.70;;;;;;5134126;27;20453;-68
2023/12/29 01:56:16;;;;;;;7.10;5.40;;;20.90;58.70;;;;;;5134128;27;20445;-68
2023/12/29 01:58:43;;;;;;;7.67;5.47;;;21.00;58.70;;;;;;5134064;27;20582;-68
2023/12/29 02:01:09;;;;;;;6.57;4.90;;;21.00;58.80;;;;;;5133981;27;20534;-68
2023/12/29 02:03:35;;;;;;;7.07;4.73;;;21.00;58.70;;;;;;5133909;27;21014;-69
2023/12/29 02:06:01;;;;;;;5.87;4.43;;;20.90;58.70;;;;;;5115443;27;20579;-69
2023/12/29 02:08:28;;;;;;;6.70;4.73;;;20.90;58.70;;;;;;5133921;27;20301;-67
2023/12/29 02:10:54;;;;;;;7.73;4.50;;;21.00;58.70;;;;;;5133933;27;20425;-69
2023/12/29 02:13:22;;;;;;;8.27;4.60;;;20.90;58.60;;;;;;5133753;27;20526;-68
2023/12/29 02:15:52;;;;;;;5.30;4.67;;;20.90;58.70;;;;;;5133535;27;20442;-69
2023/12/29 02:18:18;;;;;;;6.43;4.70;;;20.90;58.60;;;;;;5133668;27;20458;-68
2023/12/29 02:20:44;;;;;;;5.70;4.87;;;20.90;58.60;;;;;;5133887;27;20420;-69
2023/12/29 02:23:10;;;;;;;6.23;4.50;;;20.90;58.60;;;;;;5133644;27;20506;-69
2023/12/29 02:25:36;;;;;;;7.33;4.60;;;20.90;58.60;;;;;;5133654;27;20241;-69
2023/12/29 02:28:14;;;;;;;5.87;4.17;;;20.90;58.60;;;;;;5133751;27;20253;-68
2023/12/29 02:30:54;;;;;;;5.83;5.00;;;21.00;58.70;;;;;;5133359;27;20420;-68
2023/12/29 02:33:21;;;;;;;7.50;5.17;;;20.90;58.60;;;;;;5133329;27;20955;-68
2023/12/29 02:35:50;;;;;;;5.80;4.60;;;20.90;58.60;;;;;;5114899;27;20420;-69
2023/12/29 02:38:16;;;;;;;5.47;4.20;;;20.90;58.60;;;;;;5133334;27;20484;-68
2023/12/29 02:40:41;;;;;;;5.07;4.03;;;20.90;58.60;;;;;;5132518;27;20453;-69
2023/12/29 02:43:09;;;;;;;5.43;4.57;;;20.90;58.60;;;;;;5133318;27;20176;-69
2023/12/29 02:45:34;;;;;;;5.70;4.10;;;20.90;58.60;;;;;;5133016;27;20647;-69
2023/12/29 02:48:00;;;;;;;5.67;3.57;;;20.90;58.60;;;;;;5133183;27;20484;-68
2023/12/29 02:50:25;;;;;;;4.90;4.20;;;20.90;58.60;;;;;;5133353;27;20749;-68
2023/12/29 02:52:51;;;;;;;4.20;3.60;;;20.90;58.60;;;;;;5133055;27;20184;-68
2023/12/29 02:55:16;;;;;;;4.43;3.90;;;20.90;58.60;;;;;;5133408;27;20171;-68
2023/12/29 02:57:42;;;;;;;5.60;4.27;;;20.90;58.60;;;;;;5133013;27;20192;-68
2023/12/29 03:00:08;;;;;;;6.10;3.70;;;20.90;58.60;;;;;;5132724;27;20177;-68
2023/12/29 03:02:34;;;;;;;4.20;3.33;;;20.90;58.60;;;;;;5114377;27;20226;-68
2023/12/29 03:05:00;;;;;;;3.80;3.37;;;20.90;58.60;;;;;;5132960;27;20187;-68
2023/12/29 03:07:25;;;;;;;4.57;3.97;;;20.90;58.60;;;;;;5133021;27;20488;-68
2023/12/29 03:09:51;;;;;;;6.17;4.10;;;20.80;58.50;;;;;;5132858;27;20266;-68
2023/12/29 03:12:17;;;;;;;4.53;3.60;;;20.90;58.60;;;;;;5132751;27;20542;-68
2023/12/29 03:14:43;;;;;;;4.83;3.80;;;20.90;58.60;;;;;;5132765;27;20264;-69
2023/12/29 03:17:09;;;;;;;4.40;3.30;;;20.90;58.60;;;;;;5132264;27;20597;-68
2023/12/29 03:19:35;;;;;;;4.30;3.70;;;20.90;58.60;;;;;;5132611;27;20409;-68
2023/12/29 03:22:01;;;;;;;4.80;3.77;;;20.80;58.50;;;;;;5132575;27;20224;-69
2023/12/29 03:24:28;;;;;;;5.20;3.60;;;20.90;58.50;;;;;;5132603;27;20436;-68
2023/12/29 03:26:53;;;;;;;4.37;3.47;;;20.80;58.50;;;;;;5132414;27;20493;-68
2023/12/29 03:29:19;;;;;;;4.90;3.30;;;20.90;58.50;;;;;;5132496;27;20910;-69
2023/12/29 03:31:45;;;;;;;6.50;3.63;;;20.80;58.50;;;;;;5132255;27;20184;-68
2023/12/29 03:34:10;;;;;;;4.37;3.47;;;20.90;58.60;;;;;;5132335;27;20211;-69
2023/12/29 03:36:36;;;;;;;4.80;3.47;;;20.80;58.50;;;;;;5132425;27;20172;-69
2023/12/29 03:39:02;;;;;;;4.90;4.10;;;20.90;58.50;;;;;;5132310;27;20172;-68
2023/12/29 03:41:28;;;;;;;4.80;3.93;;;20.80;58.40;;;;;;5132236;27;20172;-69
2023/12/29 03:43:54;;;;;;;5.13;3.93;;;20.90;58.50;;;;;;5132131;27;21014;-68
2023/12/29 03:46:22;;;;;;;4.90;3.40;;;20.90;58.60;;;;;;5131856;27;20669;-68
2023/12/29 03:48:48;;;;;;;5.70;4.43;;;20.80;58.50;;;;;;5131974;27;20799;-68
2023/12/29 03:51:15;;;;;;;4.80;3.70;;;20.80;58.50;;;;;;5132020;27;20500;-69
2023/12/29 03:53:41;;;;;;;6.83;2.87;;;20.80;58.40;;;;;;5131936;27;20553;-68
2023/12/29 03:56:08;;;;;;;4.70;3.47;;;20.80;58.40;;;;;;5131907;27;20846;-68
2023/12/29 03:58:34;;;;;;;4.07;3.00;;;20.80;58.40;;;;;;5131832;27;20203;-69
2023/12/29 04:01:00;;;;;;;3.87;3.00;;;20.80;58.40;;;;;;5131650;27;20422;-68
2023/12/29 04:03:26;;;;;;;4.63;3.37;;;20.80;58.40;;;;;;5131749;27;20487;-68
2023/12/29 04:05:51;;;;;;;5.27;3.10;;;20.80;58.40;;;;;;5131806;27;20654;-68
2023/12/29 04:08:17;;;;;;;4.27;2.90;;;20.80;58.40;;;;;;5131316;27;20271;-68
2023/12/29 04:10:43;;;;;;;3.20;2.53;;;20.80;58.40;;;;;;5120589;27;20185;-68
2023/12/29 04:13:08;;;;;;;6.57;3.60;;;20.80;59.00;;;;;;5111838;27;20189;-68
2023/12/29 04:15:37;;;;;;;4.33;3.50;;;20.80;58.40;;;;;;5111596;27;20217;-68
2023/12/29 04:18:02;;;;;;;3.57;3.23;;;20.80;58.40;;;;;;5093397;28;20240;-69
2023/12/29 04:20:28;;;;;;;4.57;3.00;;;20.80;58.50;;;;;;5111807;27;20439;-68
2023/12/29 04:22:55;;;;;;;3.17;2.83;;;20.80;58.40;;;;;;5124740;27;20207;-69
2023/12/29 04:25:20;;;;;;;4.37;3.40;;;20.80;58.40;;;;;;5131286;27;20184;-68
2023/12/29 04:27:46;;;;;;;3.27;2.97;;;20.80;58.40;;;;;;5131123;27;20436;-69
2023/12/29 04:30:11;;;;;;;3.63;2.80;;;20.80;58.40;;;;;;5131063;27;20726;-68
2023/12/29 04:32:37;;;;;;;4.43;3.27;;;20.80;58.40;;;;;;5131266;27;20190;-69
2023/12/29 04:35:03;;;;;;;3.43;2.90;;;20.80;58.40;;;;;;5131155;27;20200;-68
2023/12/29 04:37:29;;;;;;;3.37;2.97;;;20.80;58.40;;;;;;5131185;27;20204;-69
2023/12/29 04:39:54;;;;;;;3.70;2.97;;;20.80;58.40;;;;;;5131244;27;21244;-69
2023/12/29 04:42:20;;;;;;;3.30;2.63;;;20.80;58.40;;;;;;5112700;27;20610;-68
2023/12/29 04:44:45;;;;;;;5.10;3.27;;;20.80;58.40;;;;;;5131016;27;20250;-68
2023/12/29 04:47:11;;;;;;;5.07;3.20;;;20.80;58.40;;;;;;5112088;27;20666;-68
2023/12/29 04:49:37;;;;;;;4.50;2.90;;;20.80;58.40;;;;;;5096063;27;20188;-68
2023/12/29 04:52:02;;;;;;;4.50;3.40;;;20.80;58.40;;;;;;5130970;27;20183;-68
2023/12/29 04:54:28;;;;;;;5.23;3.23;;;20.80;58.50;;;;;;5130783;27;20200;-68
2023/12/29 04:56:54;;;;;;;5.07;4.57;;;20.80;58.40;;;;;;5130689;27;20606;-69
2023/12/29 04:59:19;;;;;;;3.50;2.90;;;20.80;58.50;;;;;;5130835;27;20267;-69
2023/12/29 05:01:45;;;;;;;7.10;3.60;;;20.80;58.50;;;;;;5130327;27;20176;-68
2023/12/29 05:04:10;;;;;;;5.30;3.47;;;20.80;58.50;;;;;;5130669;27;20184;-68
2023/12/29 05:06:36;;;;;;;7.80;3.67;;;20.80;58.50;;;;;;5130686;27;20264;-68
2023/12/29 05:09:02;;;;;;;3.53;2.47;;;20.80;58.50;;;;;;5112630;27;20215;-68
2023/12/29 05:11:28;;;;;;;3.83;3.03;;;20.80;58.50;;;;;;5130762;27;20188;-68
2023/12/29 05:13:53;;;;;;;5.10;3.60;;;20.80;58.50;;;;;;5130479;27;20461;-68
2023/12/29 05:16:19;;;;;;;5.03;3.00;;;20.80;58.50;;;;;;5112273;27;20241;-68
2023/12/29 05:18:44;;;;;;;3.87;3.23;;;20.80;58.50;;;;;;5130533;27;20207;-68
2023/12/29 05:21:18;;;;;;;3.73;2.90;;;20.80;58.50;;;;;;5130527;27;20176;-67
2023/12/29 05:23:47;;;;;;;2.90;2.60;;;20.80;58.50;;;;;;5130410;27;20180;-68
2023/12/29 05:26:14;;;;;;;5.27;3.07;;;20.80;58.50;;;;;;5130636;28;20429;-69
2023/12/29 05:28:39;;;;;;;4.23;3.07;;;20.80;58.50;;;;;;5116951;28;20962;-68
2023/12/29 05:31:05;;;;;;;5.03;2.87;;;20.80;58.50;;;;;;5110455;28;20423;-69
2023/12/29 05:33:31;;;;;;;3.87;3.57;;;20.80;58.50;;;;;;5110449;28;20197;-68
2023/12/29 05:35:57;;;;;;;4.53;3.23;;;20.80;58.40;;;;;;5110458;28;20173;-68
2023/12/29 05:38:23;;;;;;;5.03;3.70;;;20.80;58.50;;;;;;5092144;28;20430;-68
2023/12/29 05:40:49;;;;;;;3.70;3.30;;;20.80;58.40;;;;;;5110364;28;20407;-68
2023/12/29 05:43:18;;;;;;;4.30;2.97;;;20.80;58.50;;;;;;5110602;28;20543;-69
2023/12/29 05:45:44;;;;;;;5.10;2.90;;;20.80;58.50;;;;;;5110356;28;20566;-67
2023/12/29 05:48:10;;;;;;;3.60;2.63;;;20.90;58.50;;;;;;5110503;28;20442;-68
2023/12/29 05:50:36;;;;;;;3.93;3.07;;;20.80;58.40;;;;;;5110370;28;20278;-69
2023/12/29 05:53:02;;;;;;;4.00;2.77;;;20.80;58.50;;;;;;5110217;28;20493;-68
2023/12/29 05:55:27;;;;;;;3.47;2.87;;;20.80;58.50;;;;;;5091889;28;20323;-68
2023/12/29 05:57:53;;;;;;;5.00;3.37;;;20.80;58.40;;;;;;5110010;28;20197;-68
2023/12/29 06:00:18;;;;;;;3.50;2.73;;;20.80;58.50;;;;;;5110255;28;20253;-68
2023/12/29 06:02:44;;;;;;;4.70;3.20;;;20.80;58.40;;;;;;5110144;28;20705;-68
2023/12/29 06:05:13;;;;;;;4.70;3.03;;;20.80;58.40;;;;;;5091908;28;20204;-68
2023/12/29 06:07:39;;;;;;;3.20;2.30;;;20.80;58.40;;;;;;5109886;28;20702;-68
2023/12/29 06:10:05;;;;;;;3.47;3.00;;;20.90;58.50;;;;;;5109932;28;20472;-68
2023/12/29 06:12:31;;;;;;;4.17;2.67;;;20.80;58.40;;;;;;5110114;28;20449;-68
2023/12/29 06:14:57;;;;;;;2.93;2.50;;;20.80;58.40;;;;;;5111694;28;20493;-68
2023/12/29 06:17:22;;;;;;;3.27;2.37;;;20.80;58.40;;;;;;5113636;28;20695;-68
2023/12/29 06:19:48;;;;;;;3.73;2.80;;;20.80;58.50;;;;;;5113864;28;20177;-68
2023/12/29 06:22:14;;;;;;;3.53;2.80;;;20.90;59.10;;;;;;5113900;28;20169;-68
2023/12/29 06:24:40;;;;;;;3.77;2.97;;;20.80;58.50;;;;;;5114011;28;20268;-68
2023/12/29 06:27:08;;;;;;;3.17;2.47;;;20.90;58.60;;;;;;5113637;28;20484;-69
2023/12/29 06:29:33;;;;;;;2.90;2.40;;;20.90;58.60;;;;;;5113637;28;20493;-68
2023/12/29 06:31:59;;;;;;;3.20;2.50;;;20.90;58.60;;;;;;5113638;28;20489;-68
2023/12/29 06:34:25;;;;;;;2.70;2.10;;;20.90;58.50;;;;;;5113525;28;20196;-69
2023/12/29 06:36:51;;;;;;;2.60;2.30;;;20.90;58.50;;;;;;5113625;28;20212;-69
2023/12/29 06:39:16;;;;;;;3.80;2.87;;;20.90;59.10;;;;;;5095125;28;20255;-68
2023/12/29 06:41:42;;;;;;;4.03;2.83;;;20.90;58.50;;;;;;5113429;28;20179;-68
2023/12/29 06:44:08;;;;;;;4.20;2.30;;;21.00;58.60;;;;;;5095006;28;20271;-67
2023/12/29 06:46:33;;;;;;;3.70;2.80;;;21.00;58.60;;;;;;5094978;28;20562;-68
2023/12/29 06:48:59;;;;;;;3.13;2.03;;;21.00;58.50;;;;;;5113304;28;20207;-68
2023/12/29 06:51:24;;;;;;;3.97;2.90;;;21.00;58.50;;;;;;5113537;28;20185;-68
2023/12/29 06:53:50;;;;;;;3.17;2.80;;;21.00;58.50;;;;;;5113194;28;20243;-69
2023/12/29 06:56:17;;;;;;;3.80;3.07;;;21.00;58.50;;;;;;5113127;28;20185;-68
2023/12/29 06:58:44;;;;;;;5.90;2.80;;;21.00;58.50;;;;;;5113061;28;20431;-68
2023/12/29 07:01:10;;;;;;;2.67;2.10;;;21.00;58.50;;;;;;5113084;28;20925;-68
2023/12/29 07:03:35;;;;;;;3.73;2.60;;;21.00;58.40;;;;;;5113066;28;20411;-69
2023/12/29 07:06:01;;;;;;;3.40;2.30;;;21.10;58.50;;;;;;5113048;28;20226;-69
2023/12/29 07:08:27;;;;;;;2.73;2.17;;;21.10;58.50;;;;;;5112804;28;20200;-69
2023/12/29 07:10:53;;;;;;;4.03;2.33;;;21.10;58.50;;;;;;5112857;28;20421;-71
2023/12/29 07:13:19;;;;;;;3.10;2.37;;;21.10;58.50;;;;;;5112851;28;20826;-69
2023/12/29 07:15:46;;;;;;;2.83;2.17;;;21.10;58.40;;;;;;5113089;28;20277;-69
2023/12/29 07:18:12;;;;;;;3.17;2.27;;;21.10;58.40;;;;;;5112649;28;20220;-70
2023/12/29 07:20:37;;;;;;;2.83;2.20;;;21.10;58.40;;;;;;5112740;28;20894;-69
2023/12/29 07:23:03;;;;;;;4.87;2.60;;;21.10;58.40;;;;;;5112797;28;20180;-69
2023/12/29 07:25:29;;;;;;;2.93;2.10;;;21.10;58.40;;;;;;5112373;28;20707;-68
2023/12/29 07:27:54;;;;;;;3.23;2.47;;;21.10;58.40;;;;;;5112595;28;20361;-69
2023/12/29 07:30:20;;;;;;;6.43;2.20;;;21.10;58.50;;;;;;5112521;28;20176;-69
2023/12/29 07:32:46;;;;;;;2.20;2.00;;;21.20;58.60;;;;;;5112549;28;20651;-69
2023/12/29 07:35:11;;;;;;;3.60;2.20;;;21.10;58.50;;;;;;5112579;28;20204;-69
2023/12/29 07:37:37;;;;;;;3.67;2.13;;;21.10;58.50;;;;;;5112401;28;20189;-68
2023/12/29 07:40:03;;;;;;;3.70;2.20;;;21.10;58.50;;;;;;5112555;28;20299;-69
2023/12/29 07:42:29;;;;;;;4.10;2.53;;;21.20;58.60;;;;;;5112332;28;20173;-70
2023/12/29 07:44:56;;;;;;;2.43;2.23;;;21.10;58.50;;;;;;5112288;28;20419;-70
2023/12/29 07:47:21;;;;;;;2.73;2.23;;;21.10;58.50;;;;;;5112123;28;20246;-69
2023/12/29 07:49:47;;;;;;;3.37;2.40;;;21.20;58.60;;;;;;5112061;28;20415;-69
2023/12/29 07:52:13;;;;;;;4.20;2.70;;;21.10;58.50;;;;;;5112089;28;20717;-69
2023/12/29 07:54:38;;;;;;;2.67;1.90;;;21.20;58.60;;;;;;5112031;28;20594;-69
2023/12/29 07:57:04;;;;;;;3.50;2.67;;;21.20;58.60;;;;;;5111906;28;20196;-69
2023/12/29 07:59:30;;;;;;;3.10;2.43;;;21.20;58.60;;;;;;5111943;28;20177;-68
2023/12/29 08:01:57;;;;;;;2.30;2.10;;;21.10;58.50;;;;;;5111895;28;20555;-70
2023/12/29 08:04:23;;;;;;;3.07;2.37;;;21.20;58.60;;;;;;5093435;28;20209;-67
2023/12/29 08:06:49;;;;;;;2.67;2.20;;;21.20;58.60;;;;;;5111744;28;20801;-69
2023/12/29 08:09:14;;;;;;;4.13;3.03;;;21.20;58.60;;;;;;5093360;28;20421;-69
2023/12/29 08:11:42;;;;;;;3.40;2.10;;;21.20;58.60;;;;;;5111777;28;20177;-69
2023/12/29 08:14:08;;;;;;;4.77;2.60;;;21.20;58.60;;;;;;5111827;28;20291;-69
2023/12/29 08:16:39;;;;;;;4.40;2.30;;;21.20;58.60;;;;;;5111494;28;20522;-69
2023/12/29 08:19:04;;;;;;;3.13;2.30;;;21.20;58.60;;;;;;5111653;28;20236;-69
2023/12/29 08:21:30;;;;;;;3.27;2.27;;;21.20;58.60;;;;;;5111436;28;20497;-69
2023/12/29 08:23:56;;;;;;;4.20;2.60;;;21.20;58.80;;;;;;5111529;28;20577;-69
2023/12/29 08:26:21;;;;;;;3.50;2.40;;;21.20;58.60;;;;;;5111488;28;20218;-69
2023/12/29 08:28:47;;;;;;;2.70;2.40;;;21.10;58.50;;;;;;5111303;28;20197;-67
2023/12/29 08:31:14;;;;;;;3.33;2.63;;;21.20;58.60;;;;;;5111296;28;20177;-67
2023/12/29 08:33:40;;;;;;;3.00;2.43;;;21.20;58.60;;;;;;5111235;28;20208;-66
2023/12/29 08:36:06;;;;;;;2.17;1.90;;;21.20;58.60;;;;;;5111190;28;20422;-67
2023/12/29 08:38:32;;;;;;;2.73;2.23;;;21.10;58.50;;;;;;5110416;28;20571;-68
2023/12/29 08:40:58;;;;;;;2.47;2.27;;;21.10;58.50;;;;;;5111190;28;20407;-68
2023/12/29 08:43:24;;;;;;;2.40;1.93;;;21.10;58.50;;;;;;5111022;28;20542;-67
2023/12/29 08:45:49;;;;;;;2.83;2.43;;;21.10;58.50;;;;;;5111029;28;20465;-67
2023/12/29 08:48:15;;;;;;;3.73;2.30;;;21.20;58.50;;;;;;5110984;28;20227;-67
2023/12/29 08:50:42;;;;;;;4.43;2.60;;;21.10;58.50;;;;;;5111027;28;20225;-68
2023/12/29 08:53:08;;;;;;;2.30;1.70;;;21.10;58.50;;;;;;5110791;28;20463;-69
2023/12/29 08:55:33;;;;;;;2.70;2.10;;;21.10;58.50;;;;;;5110934;28;20984;-69
2023/12/29 08:57:59;;;;;;;2.53;1.90;;;21.10;58.50;;;;;;5110758;28;20189;-68
2023/12/29 09:00:25;;;;;;;2.67;2.00;;;21.10;58.50;;;;;;5110870;28;20294;-69
2023/12/29 09:02:50;;;;;;;2.40;2.00;;;21.10;58.50;;;;;;5110755;28;20173;-70
2023/12/29 09:05:16;;;;;;;3.83;2.73;;;21.10;58.50;;;;;;5110784;28;20585;-69
2023/12/29 09:07:42;;;;;;;2.47;1.97;;;21.10;58.50;;;;;;5110734;28;20192;-68
2023/12/29 09:10:10;;;;;;;2.27;2.07;;;21.10;58.50;;;;;;5110695;28;20177;-68
2023/12/29 09:12:36;;;;;;;4.50;2.00;;;21.10;58.50;;;;;;5110528;28;20169;-68
2023/12/29 09:15:02;;;;;;;3.73;2.43;;;21.10;58.60;;;;;;5110495;28;20449;-68
2023/12/29 09:17:28;;;;;;;2.60;1.97;;;21.20;58.70;;;;;;5110348;28;20216;-68
2023/12/29 09:19:54;;;;;;;2.87;1.90;;;21.20;58.70;;;;;;5110567;28;20399;-68
2023/12/29 09:22:20;;;;;;;3.53;1.83;;;21.20;58.70;;;;;;5110463;28;20179;-68
2023/12/29 09:24:46;;;;;;;2.10;1.80;;;21.10;58.60;;;;;;5110517;28;20407;-67
2023/12/29 09:27:11;;;;;;;2.37;2.10;;;21.20;58.70;;;;;;5110324;28;20192;-69
2023/12/29 09:29:37;;;;;;;3.27;2.10;;;21.20;58.70;;;;;;5092094;28;20561;-68
2023/12/29 09:32:03;;;;;;;1.93;1.60;;;21.20;58.70;;;;;;5110626;28;20226;-69
2023/12/29 09:34:29;;;;;;;2.20;2.00;;;21.20;58.70;;;;;;5110273;28;20429;-68
2023/12/29 09:36:54;;;;;;;2.60;2.27;;;21.20;58.70;;;;;;5110188;28;20827;-68
2023/12/29 09:39:20;;;;;;;2.30;2.10;;;21.10;58.60;;;;;;5092018;28;20241;-68
2023/12/29 09:41:52;;;;;;;3.77;2.10;;;21.20;58.70;;;;;;5110272;28;20201;-68
2023/12/29 09:44:21;;;;;;;3.07;2.40;;;21.20;58.70;;;;;;5110221;28;20165;-69
2023/12/29 09:46:53;;;;;;;2.43;2.13;;;21.10;58.60;;;;;;5110394;28;20494;-68
2023/12/29 09:49:19;;;;;;;2.93;2.37;;;21.20;58.70;;;;;;5112612;28;20411;-68
2023/12/29 09:51:45;;;;;;;2.83;2.40;;;21.20;58.70;;;;;;5114255;28;20410;-69
2023/12/29 09:54:12;;;;;;;2.97;1.90;;;21.20;58.70;;;;;;5114245;28;20492;-68
2023/12/29 09:56:38;;;;;;;2.63;1.80;;;21.20;58.70;;;;;;5114138;28;20168;-68
2023/12/29 09:59:04;;;;;;;2.10;1.83;;;21.20;58.70;;;;;;5114174;28;20407;-68
2023/12/29 10:01:31;;;;;;;2.37;2.10;;;21.20;58.70;;;;;;5114115;28;20489;-68
2023/12/29 10:03:57;;;;;;;2.47;1.90;;;21.20;58.60;;;;;;5114020;28;20451;-68
2023/12/29 10:06:26;;;;;;;3.03;2.20;;;21.20;58.60;;;;;;5114002;28;20498;-68
2023/12/29 10:08:53;;;;;;;2.30;1.90;;;21.20;58.60;;;;;;5113939;28;20549;-68
2023/12/29 10:11:22;;;;;;;2.53;1.77;;;21.20;58.60;;;;;;5113871;28;21303;-68
2023/12/29 10:13:51;;;;;;;3.40;1.90;;;21.20;58.60;;;;;;5114016;28;20457;-68
2023/12/29 10:16:35;;;;;;;1.97;1.70;;;21.20;58.60;;;;;;5113795;28;20401;-68
2023/12/29 10:19:16;;;;;;;1.90;1.80;;;21.20;58.60;;;;;;5114239;28;20437;-68
2023/12/29 10:22:03;;;;;;;5.67;2.40;;;21.20;58.60;;;;;;5113745;28;20466;-68
2023/12/29 10:24:29;;;;;;;3.00;2.27;;;21.20;58.60;;;;;;5113630;28;20762;-68
2023/12/29 10:26:57;;;;;;;1.60;1.50;;;21.20;58.70;;;;;;5113790;28;20535;-68
2023/12/29 10:29:23;;;;;;;2.07;1.87;;;21.10;58.60;;;;;;5113675;28;20438;-68
2023/12/29 10:31:49;;;;;;;3.37;2.00;;;21.20;58.80;;;;;;5113645;28;20173;-68
2023/12/29 10:34:31;;;;;;;2.43;1.90;;;21.10;58.60;;;;;;5113601;28;20972;-67
2023/12/29 10:37:03;;;;;;;2.30;1.73;;;21.20;58.80;;;;;;5113715;28;20971;-67
2023/12/29 10:39:28;;;;;;;2.57;1.90;;;21.10;58.70;;;;;;5113555;28;20394;-68
2023/12/29 10:42:12;;;;;;;1.90;1.70;;;21.20;58.80;;;;;;5113381;28;20406;-68
2023/12/29 10:44:38;;;;;;;2.43;1.77;;;21.20;58.70;;;;;;5113446;28;20165;-68
2023/12/29 10:47:10;;;;;;;2.07;1.70;;;21.20;58.80;;;;;;5113197;28;20446;-68
2023/12/29 10:49:37;;;;;;;3.53;2.17;;;21.20;58.80;;;;;;5113352;28;20498;-68
2023/12/29 10:52:14;;;;;;;2.10;1.50;;;21.20;58.80;;;;;;5113148;28;20963;-69
2023/12/29 10:54:40;;;;;;;2.80;1.80;;;21.20;58.80;;;;;;5113185;28;20503;-68
2023/12/29 10:57:05;;;;;;;2.80;1.93;;;21.20;58.80;;;;;;5113022;28;20427;-68
2023/12/29 10:59:31;;;;;;;2.17;1.93;;;21.20;58.80;;;;;;5113107;28;20943;-68
2023/12/29 11:02:00;;;;;;;1.90;1.60;;;21.20;58.80;;;;;;5112456;28;20644;-68
2023/12/29 11:04:26;;;;;;;2.20;1.90;;;21.20;58.80;;;;;;5112900;28;20659;-68
2023/12/29 11:06:51;;;;;;;1.67;1.57;;;21.20;58.80;;;;;;5112833;28;20457;-68
2023/12/29 11:09:28;;;;;;;2.00;1.80;;;21.20;58.80;;;;;;5112930;28;20173;-68
2023/12/29 11:11:59;;;;;;;2.30;1.80;;;21.20;58.70;;;;;;5112760;28;20157;-69
2023/12/29 11:14:25;;;;;;;2.47;1.90;;;21.20;58.70;;;;;;5112515;28;20517;-69
2023/12/29 11:16:54;;;;;;;2.23;1.60;;;21.20;58.70;;;;;;5112434;28;20454;-68
2023/12/29 11:19:21;;;;;;;2.23;2.03;;;21.20;59.20;;;;;;5112690;28;21079;-68
2023/12/29 11:21:48;;;;;;;2.37;1.83;;;21.20;58.70;;;;;;5112620;28;20472;-68
2023/12/29 11:24:16;;;;;;;3.57;1.80;;;21.20;58.70;;;;;;5094115;28;20475;-69
2023/12/29 11:26:43;;;;;;;1.80;1.60;;;21.20;58.60;;;;;;5112672;28;20415;-68
2023/12/29 11:29:11;;;;;;;2.30;1.73;;;21.20;58.60;;;;;;5112376;28;20752;-68
2023/12/29 11:31:37;;;;;;;2.37;1.80;;;21.10;58.50;;;;;;5112417;28;20414;-68
2023/12/29 11:34:23;;;;;;;1.93;1.70;;;21.10;58.50;;;;;;5112174;28;20571;-68
2023/12/29 11:36:55;;;;;;;2.27;1.70;;;21.20;58.70;;;;;;5112180;28;20627;-68
2023/12/29 11:40:02;;;;;;;1.80;1.60;;;21.10;58.60;;;;;;5112317;28;20399;-69
2023/12/29 11:42:32;;;;;;;2.27;1.80;;;21.10;58.60;;;;;;5066683;28;20425;-68
2023/12/29 11:45:18;;;;;;;3.00;1.80;;;21.10;58.50;;;;;;5112129;28;20536;-68
2023/12/29 11:47:44;;;;;;;2.63;1.77;;;21.10;58.50;;;;;;5111906;28;20450;-68
2023/12/29 11:50:10;;;;;;;2.60;1.63;;;21.10;58.60;;;;;;5112002;28;20411;-68
2023/12/29 11:52:36;;;;;;;2.93;1.80;;;21.10;58.60;;;;;;5111969;28;20426;-67
2023/12/29 11:55:13;;;;;;;3.87;2.67;;;21.10;58.60;;;;;;5111864;28;20287;-69
2023/12/29 11:57:42;;;;;;;1.80;1.50;;;21.10;58.60;;;;;;5111832;28;20475;-69
2023/12/29 12:00:08;;;;;;;2.10;1.67;;;21.10;58.60;;;;;;5111784;28;20419;-68
2023/12/29 12:02:35;;;;;;;1.90;1.60;;;21.10;58.60;;;;;;5111706;28;20414;-67
2023/12/29 12:05:00;;;;;;;2.40;1.33;;;21.10;58.60;;;;;;5111710;28;20440;-71
2023/12/29 12:07:27;;;;;;;2.00;1.70;;;21.10;58.60;;;;;;5111590;28;20433;-67
2023/12/29 12:10:12;;;;;;;2.07;1.60;;;21.10;58.60;;;;;;5111743;28;20552;-68
2023/12/29 12:12:42;;;;;;;1.83;1.47;;;21.10;58.60;;;;;;5110322;28;20450;-68
2023/12/29 12:15:29;;;;;;;1.83;1.57;;;21.10;58.60;;;;;;5111507;28;20512;-68
2023/12/29 12:17:56;;;;;;;2.20;1.87;;;21.10;58.60;;;;;;5111234;28;20457;-68
2023/12/29 12:20:22;;;;;;;1.87;1.53;;;21.10;58.60;;;;;;5111457;28;20528;-68
2023/12/29 12:22:56;;;;;;;2.50;2.10;;;21.10;58.60;;;;;;5111759;28;20769;-68
2023/12/29 12:25:24;;;;;;;2.17;1.63;;;21.10;58.60;;;;;;5111218;28;20395;-68
2023/12/29 12:27:51;;;;;;;2.10;1.60;;;21.10;58.60;;;;;;5111261;28;20567;-69
2023/12/29 12:30:19;;;;;;;1.70;1.43;;;21.10;58.60;;;;;;5111306;28;21042;-68
2023/12/29 12:32:44;;;;;;;2.30;2.10;;;21.10;58.50;;;;;;5111211;28;20407;-69
2023/12/29 12:35:17;;;;;;;1.80;1.43;;;21.10;58.60;;;;;;5111120;28;20809;-68
2023/12/29 12:37:42;;;;;;;1.87;1.63;;;21.10;58.60;;;;;;5111043;28;20193;-69
2023/12/29 12:40:08;;;;;;;2.13;1.93;;;21.10;58.60;;;;;;5111000;28;20430;-68
2023/12/29 12:42:39;;;;;;;2.00;1.80;;;21.10;58.60;;;;;;5111004;28;20184;-68
2023/12/29 12:45:20;;;;;;;2.90;1.90;;;21.10;58.60;;;;;;5111361;28;20395;-67